Time;durP1;ratioP1;P1;durP2;ratioP2;P2;SDS_P1;SDS_P2;PMS_P1;PMS_P2;Temp;Humidity;BMP_temperature;BMP_pressure;BME280_temperature;BME280_humidity;BME280_pressure;Samples;Min_cycle;Max_cycle;Signal;HPM_P1;HPM_P2
2023/01/14 00:00:18;;;;;;;28.00;4.40;;;7.70;99.90;;;;;;7298308;32;20092;-60
2023/01/14 00:04:20;;;;;;;26.33;3.62;;;7.70;99.90;;;;;;7293855;32;20213;-59
2023/01/14 00:08:22;;;;;;;20.88;4.10;;;7.70;99.90;;;;;;7296086;32;20520;-60
2023/01/14 00:12:23;;;;;;;36.00;4.68;;;7.70;99.90;;;;;;7302388;32;20096;-60
2023/01/14 00:16:25;;;;;;;28.23;4.03;;;7.70;99.90;;;;;;7292493;32;20170;-59
2023/01/14 00:20:30;;;;;;;29.20;4.22;;;7.60;99.90;;;;;;7293934;32;20096;-60
2023/01/14 00:24:31;;;;;;;29.35;4.07;;;7.50;99.90;;;;;;7302404;32;20100;-60
2023/01/14 00:28:33;;;;;;;25.08;3.55;;;7.60;99.90;;;;;;7296409;32;20220;-60
2023/01/14 00:32:35;;;;;;;29.85;3.75;;;7.50;99.90;;;;;;7294249;32;20475;-59
2023/01/14 00:36:36;;;;;;;32.63;4.15;;;7.50;99.90;;;;;;7296896;32;20261;-60
2023/01/14 00:40:38;;;;;;;30.00;4.35;;;7.50;99.90;;;;;;7302077;32;20234;-59
2023/01/14 00:44:40;;;;;;;25.60;4.00;;;7.50;99.90;;;;;;7301661;32;20318;-61
2023/01/14 00:48:42;;;;;;;30.42;3.70;;;7.50;99.90;;;;;;7298800;32;20103;-60
2023/01/14 00:52:44;;;;;;;33.22;4.62;;;7.50;99.90;;;;;;7297830;32;20171;-60
2023/01/14 00:56:46;;;;;;;33.88;4.70;;;7.50;99.90;;;;;;7296864;32;20183;-60
2023/01/14 01:00:48;;;;;;;30.52;4.75;;;7.50;99.90;;;;;;7294926;32;20123;-60
2023/01/14 01:04:50;;;;;;;30.42;3.70;;;7.50;99.90;;;;;;7301174;32;20297;-60
2023/01/14 01:09:00;;;;;;;27.35;4.35;;;7.40;99.90;;;;;;7298062;32;20249;-59
2023/01/14 01:13:03;;;;;;;34.40;3.95;;;7.50;99.90;;;;;;7298256;32;20153;-60
2023/01/14 01:17:05;;;;;;;30.35;3.95;;;7.40;99.90;;;;;;7298998;32;20104;-59
2023/01/14 01:21:15;;;;;;;25.55;4.12;;;7.30;99.90;;;;;;7298386;32;20119;-60
2023/01/14 01:25:17;;;;;;;26.17;3.42;;;7.20;99.90;;;;;;7300864;32;20142;-60
2023/01/14 01:29:18;;;;;;;22.23;4.00;;;7.10;99.90;;;;;;7296807;32;20257;-60
2023/01/14 01:33:20;;;;;;;22.17;3.05;;;7.10;99.90;;;;;;7299722;32;20217;-60
2023/01/14 01:37:22;;;;;;;21.17;3.10;;;7.00;99.90;;;;;;7294042;32;20204;-60
2023/01/14 01:41:29;;;;;;;24.42;3.83;;;7.00;99.90;;;;;;7302592;32;20122;-60
2023/01/14 01:45:44;;;;;;;24.67;3.55;;;7.00;99.90;;;;;;7301827;32;20107;-61
2023/01/14 01:49:46;;;;;;;27.00;4.85;;;6.90;99.90;;;;;;7299249;32;20099;-59
2023/01/14 01:53:52;;;;;;;26.15;5.12;;;6.90;99.90;;;;;;7300401;32;20107;-59
2023/01/14 01:57:55;;;;;;;33.30;4.00;;;6.90;99.90;;;;;;7294444;32;20629;-59
2023/01/14 02:01:57;;;;;;;37.10;4.07;;;7.00;99.90;;;;;;7296428;32;20277;-59
2023/01/14 02:06:00;;;;;;;22.65;3.50;;;7.00;99.90;;;;;;7298941;32;20149;-60
2023/01/14 02:10:05;;;;;;;31.33;3.78;;;7.10;99.90;;;;;;7298269;32;20123;-59
2023/01/14 02:14:30;;;;;;;24.20;3.37;;;7.10;99.90;;;;;;7299424;32;20096;-60
2023/01/14 02:18:46;;;;;;;20.05;3.50;;;7.00;99.90;;;;;;7295941;32;20096;-60
2023/01/14 02:22:51;;;;;;;21.00;3.47;;;7.00;99.90;;;;;;7295550;32;20698;-59
2023/01/14 02:27:20;;;;;;;25.35;4.05;;;6.90;99.90;;;;;;7297021;32;20245;-61
2023/01/14 02:31:33;;;;;;;27.37;3.90;;;6.80;99.90;;;;;;7295634;32;20115;-61
2023/01/14 02:35:49;;;;;;;28.77;4.25;;;6.80;99.90;;;;;;7282794;32;20146;-59
2023/01/14 02:40:28;;;;;;;22.98;4.43;;;6.80;99.90;;;;;;7291133;32;20099;-59
2023/01/14 02:44:35;;;;;;;26.45;3.75;;;6.80;99.90;;;;;;7293773;32;20126;-61
2023/01/14 02:48:39;;;;;;;26.73;3.60;;;6.70;99.90;;;;;;7297952;32;20133;-61
2023/01/14 02:52:41;;;;;;;22.25;3.22;;;6.70;99.90;;;;;;7284582;32;20216;-60
2023/01/14 02:56:45;;;;;;;24.42;3.83;;;6.70;99.90;;;;;;7297223;32;20235;-60
2023/01/14 03:01:11;;;;;;;29.92;3.40;;;6.70;99.90;;;;;;7296910;32;20179;-59
2023/01/14 03:05:31;;;;;;;27.23;3.70;;;6.60;99.90;;;;;;7294187;32;20103;-59
2023/01/14 03:09:41;;;;;;;17.42;3.17;;;6.60;99.90;;;;;;7297672;32;20196;-58
2023/01/14 03:13:57;;;;;;;25.75;4.35;;;6.70;99.90;;;;;;7296676;32;20224;-59
2023/01/14 03:18:19;;;;;;;27.20;3.75;;;6.80;99.90;;;;;;7294427;32;20273;-59
2023/01/14 03:22:21;;;;;;;17.33;3.10;;;6.80;99.90;;;;;;7297722;32;20332;-60
2023/01/14 03:26:25;;;;;;;23.73;3.55;;;6.80;99.90;;;;;;7297313;32;20642;-60
2023/01/14 03:30:33;;;;;;;33.83;3.78;;;6.70;99.90;;;;;;7294583;32;20131;-60
2023/01/14 03:34:41;;;;;;;25.27;3.50;;;6.80;99.90;;;;;;7291516;32;20450;-60
2023/01/14 03:38:48;;;;;;;27.92;3.55;;;6.70;99.90;;;;;;7291660;32;20116;-60
2023/01/14 03:42:55;;;;;;;23.20;2.95;;;6.70;99.90;;;;;;7292698;32;20219;-60
2023/01/14 03:46:57;;;;;;;22.45;3.30;;;6.80;99.90;;;;;;7297608;32;20100;-59
2023/01/14 03:51:17;;;;;;;22.90;2.78;;;6.90;99.90;;;;;;7295153;32;20104;-59
2023/01/14 03:55:45;;;;;;;22.27;3.78;;;6.90;99.90;;;;;;7288744;32;20104;-59
2023/01/14 04:00:00;;;;;;;22.20;2.83;;;7.00;99.90;;;;;;7302678;32;20137;-59
2023/01/14 04:04:02;;;;;;;32.22;3.80;;;6.90;99.90;;;;;;7297524;32;20286;-59
2023/01/14 04:08:05;;;;;;;26.10;3.80;;;6.90;99.90;;;;;;7297632;32;20740;-59
2023/01/14 04:12:07;;;;;;;22.62;2.83;;;6.70;99.90;;;;;;7301242;32;20180;-59
2023/01/14 04:16:09;;;;;;;22.55;3.45;;;6.70;99.90;;;;;;7299645;32;20150;-60
2023/01/14 04:20:11;;;;;;;20.55;3.60;;;6.60;99.90;;;;;;7299729;32;20100;-59
2023/01/14 04:24:12;;;;;;;31.70;4.32;;;6.70;99.90;;;;;;7296943;32;20241;-60
2023/01/14 04:28:14;;;;;;;18.95;3.45;;;6.60;99.90;;;;;;7300786;32;20123;-60
2023/01/14 04:32:16;;;;;;;22.13;2.80;;;6.60;99.90;;;;;;7295839;32;20096;-60
2023/01/14 04:36:17;;;;;;;15.18;3.08;;;6.70;99.90;;;;;;7299720;32;20111;-60
2023/01/14 04:40:20;;;;;;;32.60;3.50;;;6.60;99.90;;;;;;7293299;32;20099;-60
2023/01/14 04:44:22;;;;;;;25.88;3.42;;;6.60;99.90;;;;;;7300353;32;20745;-60
2023/01/14 04:48:25;;;;;;;18.35;3.42;;;6.50;99.90;;;;;;7299728;32;20336;-60
2023/01/14 04:52:26;;;;;;;26.73;3.70;;;6.50;99.90;;;;;;7300537;32;20108;-59
2023/01/14 04:56:28;;;;;;;23.15;2.90;;;6.50;99.90;;;;;;7298971;32;21021;-60
2023/01/14 05:00:30;;;;;;;21.10;2.95;;;6.50;99.90;;;;;;7299686;32;20596;-61
2023/01/14 05:04:32;;;;;;;20.95;3.22;;;6.50;99.90;;;;;;7298617;32;20104;-61
2023/01/14 05:08:33;;;;;;;18.92;3.47;;;6.60;99.90;;;;;;7295305;32;20107;-59
2023/01/14 05:12:35;;;;;;;24.75;3.65;;;6.60;99.90;;;;;;7287424;32;20223;-59
2023/01/14 05:16:37;;;;;;;23.58;2.65;;;6.50;99.90;;;;;;7299214;32;20227;-60
2023/01/14 05:20:39;;;;;;;24.12;2.80;;;6.50;99.90;;;;;;7299249;32;20490;-59
2023/01/14 05:24:42;;;;;;;25.98;3.33;;;6.50;99.90;;;;;;7300651;32;20211;-61
2023/01/14 05:28:43;;;;;;;23.73;2.90;;;6.50;99.90;;;;;;7298206;32;20239;-60
2023/01/14 05:32:45;;;;;;;27.65;3.25;;;6.50;99.90;;;;;;7300610;32;20114;-60
2023/01/14 05:36:46;;;;;;;22.77;2.67;;;6.50;99.90;;;;;;7288797;32;20104;-60
2023/01/14 05:40:48;;;;;;;18.55;2.35;;;6.40;99.90;;;;;;7296362;32;20552;-59
2023/01/14 05:49:11;;;;;;;18.48;2.30;;;6.50;99.90;;;;;;7294900;32;20457;-59
2023/01/14 05:53:12;;;;;;;17.62;2.33;;;6.50;99.90;;;;;;7296311;32;20477;-60
2023/01/14 05:57:14;;;;;;;22.90;2.83;;;6.50;99.90;;;;;;7301265;32;20700;-59
2023/01/14 06:09:56;;;;;;;14.45;3.17;;;6.50;99.90;;;;;;7288624;32;20453;-60
2023/01/14 06:13:59;;;;;;;19.52;3.30;;;6.50;99.90;;;;;;7290194;32;20100;-59
2023/01/14 06:18:09;;;;;;;20.90;3.00;;;6.50;99.90;;;;;;7288307;32;20289;-60
2023/01/14 06:22:11;;;;;;;12.68;2.30;;;6.40;99.90;;;;;;7288487;32;20161;-60
2023/01/14 06:26:16;;;;;;;15.98;2.33;;;6.40;99.90;;;;;;7289720;32;20249;-60
2023/01/14 06:30:18;;;;;;;17.12;2.67;;;6.50;99.90;;;;;;7289876;32;20231;-59
2023/01/14 06:34:21;;;;;;;20.65;2.50;;;6.50;99.90;;;;;;7282437;32;20091;-59
2023/01/14 06:38:23;;;;;;;16.33;2.47;;;6.50;99.90;;;;;;7294004;32;20161;-59
2023/01/14 06:42:25;;;;;;;16.60;2.05;;;6.50;99.90;;;;;;7292851;32;20100;-58
2023/01/14 06:46:26;;;;;;;16.23;2.25;;;6.60;99.90;;;;;;7286762;32;20187;-59
2023/01/14 06:50:28;;;;;;;19.70;2.90;;;6.70;99.90;;;;;;7284736;32;20119;-60
2023/01/14 06:54:30;;;;;;;17.95;2.90;;;6.70;99.90;;;;;;7289285;32;20141;-59
2023/01/14 06:58:32;;;;;;;12.75;2.05;;;6.80;99.90;;;;;;7291053;32;20103;-58
2023/01/14 07:02:34;;;;;;;11.73;1.95;;;6.80;99.90;;;;;;7297099;32;20103;-59
2023/01/14 07:06:36;;;;;;;12.90;2.17;;;6.70;99.90;;;;;;7291393;32;20112;-59
2023/01/14 07:10:37;;;;;;;18.58;2.50;;;6.70;99.90;;;;;;7293055;32;20108;-59
2023/01/14 07:14:39;;;;;;;14.68;2.33;;;6.60;99.90;;;;;;7286043;32;20204;-60
2023/01/14 07:18:41;;;;;;;18.87;2.83;;;6.60;99.90;;;;;;7295239;32;20219;-61
2023/01/14 07:22:42;;;;;;;15.88;2.70;;;6.50;99.90;;;;;;7293714;32;20119;-60
2023/01/14 07:26:44;;;;;;;15.60;2.65;;;6.40;99.90;;;;;;7294836;32;20126;-60
2023/01/14 07:30:48;;;;;;;15.30;1.95;;;6.30;99.90;;;;;;7292342;32;20100;-60
2023/01/14 07:34:50;;;;;;;15.85;2.37;;;6.30;99.90;;;;;;7290406;32;20330;-61
2023/01/14 07:38:52;;;;;;;10.73;2.25;;;6.30;99.90;;;;;;7289443;32;20195;-59
2023/01/14 07:42:58;;;;;;;17.95;2.62;;;6.30;99.90;;;;;;7289001;32;20095;-59
2023/01/14 07:46:59;;;;;;;17.12;2.92;;;6.30;99.90;;;;;;7285385;32;20088;-60
2023/01/14 07:51:05;;;;;;;19.77;2.72;;;6.20;99.90;;;;;;7288729;32;20195;-59
2023/01/14 07:55:07;;;;;;;15.40;2.30;;;6.20;99.90;;;;;;7290793;32;20154;-60
2023/01/14 07:59:09;;;;;;;15.95;1.85;;;6.20;99.90;;;;;;7272950;32;20150;-62
2023/01/14 08:03:11;;;;;;;11.90;2.12;;;6.20;99.90;;;;;;7285487;32;20334;-61
2023/01/14 08:07:13;;;;;;;13.93;2.85;;;6.10;99.90;;;;;;7291185;32;20100;-59
2023/01/14 08:11:14;;;;;;;13.62;2.37;;;6.20;99.90;;;;;;7290016;32;20096;-60
2023/01/14 08:15:17;;;;;;;25.37;2.28;;;6.10;99.90;;;;;;7292172;32;21641;-59
2023/01/14 08:19:18;;;;;;;15.65;2.55;;;6.10;99.90;;;;;;7292543;32;20096;-59
2023/01/14 08:23:20;;;;;;;18.48;2.35;;;6.20;99.90;;;;;;7291858;32;20150;-59
2023/01/14 08:27:22;;;;;;;13.60;2.75;;;6.20;99.90;;;;;;7296017;32;20218;-59
2023/01/14 08:31:24;;;;;;;14.95;2.37;;;6.20;99.90;;;;;;7291165;32;20112;-60
2023/01/14 08:35:25;;;;;;;19.33;2.78;;;6.20;99.90;;;;;;7295806;32;20108;-59
2023/01/14 08:39:27;;;;;;;18.87;2.70;;;6.10;99.90;;;;;;7294689;32;20199;-60
2023/01/14 08:43:29;;;;;;;14.05;2.78;;;6.10;99.90;;;;;;7298666;32;20118;-60
2023/01/14 08:47:30;;;;;;;12.88;2.87;;;6.10;99.90;;;;;;7296841;32;20214;-60
2023/01/14 08:51:32;;;;;;;25.37;3.00;;;6.20;99.90;;;;;;7294576;32;20802;-60
2023/01/14 08:55:34;;;;;;;15.52;2.55;;;6.20;99.90;;;;;;7294713;32;20695;-60
2023/01/14 08:59:35;;;;;;;22.80;3.20;;;6.20;99.90;;;;;;7298326;32;20108;-60
2023/01/14 09:03:37;;;;;;;13.20;2.50;;;6.30;99.90;;;;;;7292351;32;20100;-57
2023/01/14 09:20:44;;;;;;;18.08;2.55;;;6.50;99.90;;;;;;7291048;32;20108;-62
2023/01/14 09:24:47;;;;;;;12.55;2.50;;;6.60;99.90;;;;;;7298426;32;20127;-60
2023/01/14 09:28:50;;;;;;;12.68;2.00;;;6.60;99.90;;;;;;7295167;32;20209;-60
2023/01/14 09:32:53;;;;;;;14.95;2.28;;;6.60;99.90;;;;;;7297900;32;20725;-61
2023/01/14 09:36:55;;;;;;;14.15;1.87;;;6.70;99.90;;;;;;7291721;32;20115;-60
2023/01/14 09:40:57;;;;;;;10.63;2.28;;;6.70;99.90;;;;;;7298446;32;20104;-60
2023/01/14 09:45:34;;;;;;;16.83;2.12;;;6.80;99.90;;;;;;7295926;32;20471;-61
2023/01/14 09:49:35;;;;;;;10.55;2.37;;;6.90;99.90;;;;;;7292838;32;20131;-61
2023/01/14 09:54:05;;;;;;;14.52;2.40;;;6.90;99.90;;;;;;7291281;32;20128;-61
2023/01/14 09:58:23;;;;;;;14.23;2.20;;;7.00;99.90;;;;;;7290723;32;20135;-60
2023/01/14 10:02:54;;;;;;;11.18;2.12;;;7.00;99.90;;;;;;7280543;32;20542;-61
2023/01/14 10:06:57;;;;;;;10.80;1.42;;;7.10;99.90;;;;;;7291249;32;20287;-62
2023/01/14 10:11:01;;;;;;;11.00;1.90;;;7.20;99.90;;;;;;7283309;32;20136;-62
2023/01/14 10:15:14;;;;;;;9.85;1.77;;;7.20;99.90;;;;;;7294367;32;20140;-62
2023/01/14 10:19:37;;;;;;;9.95;2.30;;;7.30;99.90;;;;;;7297205;32;20637;-62
2023/01/14 10:23:40;;;;;;;12.98;3.20;;;7.30;99.90;;;;;;7287893;32;20828;-62
2023/01/14 10:27:45;;;;;;;10.48;2.08;;;7.20;99.90;;;;;;7294213;32;20238;-63
2023/01/14 10:31:54;;;;;;;8.85;1.95;;;7.10;99.90;;;;;;7293203;32;20813;-63
2023/01/14 10:36:04;;;;;;;9.95;1.45;;;7.10;99.90;;;;;;7293920;32;20799;-62
2023/01/14 10:40:21;;;;;;;6.05;1.20;;;7.10;99.90;;;;;;7281024;32;20108;-64
2023/01/14 10:44:23;;;;;;;4.20;0.90;;;7.10;99.90;;;;;;7294609;32;20236;-63
2023/01/14 10:48:28;;;;;;;3.70;1.08;;;7.10;99.90;;;;;;7297628;32;20168;-63
2023/01/14 10:52:32;;;;;;;6.10;1.40;;;7.10;99.90;;;;;;7277798;32;20108;-63
2023/01/14 10:56:34;;;;;;;4.65;0.90;;;7.10;99.90;;;;;;7292550;32;20183;-63
2023/01/14 11:00:51;;;;;;;5.18;1.00;;;7.10;99.90;;;;;;7287140;32;20204;-62
2023/01/14 11:04:53;;;;;;;9.30;1.25;;;7.10;99.90;;;;;;7289420;32;20220;-62
2023/01/14 11:08:55;;;;;;;5.82;1.20;;;7.20;99.90;;;;;;7292227;32;20146;-62
2023/01/14 11:13:15;;;;;;;5.55;0.75;;;7.20;99.90;;;;;;7288573;32;20108;-62
2023/01/14 11:17:23;;;;;;;6.43;0.88;;;7.30;99.90;;;;;;7295148;32;20095;-63
2023/01/14 11:21:35;;;;;;;4.53;1.00;;;7.30;99.90;;;;;;7295478;32;20325;-63
2023/01/14 11:25:39;;;;;;;3.20;0.70;;;7.30;99.90;;;;;;7290343;32;20523;-63
2023/01/14 11:29:47;;;;;;;4.47;0.80;;;7.30;99.90;;;;;;7293790;32;20210;-63
2023/01/14 11:33:50;;;;;;;4.40;0.85;;;7.40;99.90;;;;;;7277135;32;20336;-60
2023/01/14 11:37:56;;;;;;;6.03;0.90;;;7.40;99.90;;;;;;7294500;32;20146;-63
2023/01/14 11:41:58;;;;;;;6.03;1.20;;;7.50;99.90;;;;;;7274553;32;20208;-62
2023/01/14 11:46:12;;;;;;;5.65;1.08;;;7.50;99.90;;;;;;7292907;32;20719;-62
2023/01/14 11:50:19;;;;;;;3.60;0.90;;;7.50;99.90;;;;;;7289538;32;20127;-63
2023/01/14 11:54:21;;;;;;;5.90;0.90;;;7.50;99.90;;;;;;7287514;32;20218;-64
2023/01/14 11:58:25;;;;;;;4.45;1.00;;;7.50;99.90;;;;;;7286086;32;20203;-62
2023/01/14 12:02:32;;;;;;;4.75;0.90;;;7.60;99.90;;;;;;7294207;32;20108;-62
2023/01/14 12:06:43;;;;;;;5.57;1.00;;;7.60;99.90;;;;;;7288222;32;20125;-63
2023/01/14 12:10:47;;;;;;;7.05;0.93;;;7.70;99.90;;;;;;7294786;32;20119;-61
2023/01/14 12:19:45;;;;;;;6.15;1.12;;;7.80;99.90;;;;;;7294066;32;20569;-60
2023/01/14 12:23:54;;;;;;;7.97;1.33;;;7.80;99.90;;;;;;7280037;32;20241;-59
2023/01/14 12:28:01;;;;;;;8.27;0.95;;;7.80;99.90;;;;;;7296443;32;20186;-61
2023/01/14 12:32:10;;;;;;;5.80;1.23;;;7.80;99.90;;;;;;7292777;32;21005;-61
2023/01/14 12:36:21;;;;;;;5.70;0.90;;;7.90;99.90;;;;;;7295655;32;20919;-62
2023/01/14 12:49:33;;;;;;;4.20;0.90;;;8.00;99.90;;;;;;7296337;32;20273;-61
2023/01/14 12:53:48;;;;;;;3.33;1.10;;;8.00;99.90;;;;;;7298180;32;20211;-61
2023/01/14 12:57:53;;;;;;;2.08;1.00;;;8.00;99.90;;;;;;7295290;32;20104;-61
2023/01/14 13:02:01;;;;;;;3.37;0.73;;;8.00;99.90;;;;;;7283034;32;20107;-62
2023/01/14 13:06:13;;;;;;;4.45;1.00;;;8.10;99.90;;;;;;7298130;32;20270;-62
2023/01/14 13:10:26;;;;;;;1.98;0.60;;;8.10;99.90;;;;;;7291921;32;20120;-62
2023/01/14 13:14:38;;;;;;;5.75;0.80;;;8.10;99.90;;;;;;7294872;32;20108;-59
2023/01/14 13:18:41;;;;;;;2.20;0.68;;;8.20;99.90;;;;;;7294602;32;20895;-62
2023/01/14 13:22:51;;;;;;;4.22;0.70;;;8.30;99.90;;;;;;7294457;32;20242;-61
2023/01/14 13:26:54;;;;;;;4.37;0.70;;;8.30;99.90;;;;;;7292292;32;20280;-62
2023/01/14 13:30:59;;;;;;;3.45;0.70;;;8.20;99.90;;;;;;7293029;32;20136;-63
2023/01/14 13:35:01;;;;;;;2.87;0.62;;;8.20;99.90;;;;;;7296371;32;20108;-62
2023/01/14 13:39:05;;;;;;;3.97;0.70;;;8.20;99.90;;;;;;7296921;32;20216;-62
2023/01/14 13:43:25;;;;;;;1.75;0.50;;;8.20;99.90;;;;;;7296572;32;20203;-63
2023/01/14 13:47:36;;;;;;;2.90;0.77;;;8.20;99.90;;;;;;7291947;32;20218;-63
2023/01/14 13:51:44;;;;;;;3.00;0.70;;;8.30;99.90;;;;;;7298895;32;20092;-62
2023/01/14 13:56:01;;;;;;;3.03;0.70;;;8.20;99.90;;;;;;7290312;32;20606;-62
2023/01/14 14:00:37;;;;;;;6.75;0.80;;;8.30;99.90;;;;;;7295317;32;20143;-62
2023/01/14 14:04:54;;;;;;;1.45;0.50;;;8.30;99.90;;;;;;7287896;32;20123;-62
2023/01/14 14:09:15;;;;;;;2.07;0.67;;;8.30;99.90;;;;;;7293169;32;20100;-62
2023/01/14 14:18:05;;;;;;;3.85;0.60;;;8.30;99.90;;;;;;7284877;32;20539;-61
2023/01/14 14:22:34;;;;;;;1.62;0.60;;;8.30;99.90;;;;;;7286109;32;20110;-62
2023/01/14 14:26:38;;;;;;;0.60;0.37;;;8.40;99.90;;;;;;7296009;32;20099;-62
2023/01/14 14:30:46;;;;;;;1.65;0.50;;;8.40;99.90;;;;;;7298819;32;20459;-61
2023/01/14 14:35:10;;;;;;;1.25;0.68;;;8.40;99.90;;;;;;7299628;32;20122;-62
2023/01/14 14:39:24;;;;;;;1.67;0.62;;;8.40;99.90;;;;;;7299097;32;20193;-62
2023/01/14 14:43:28;;;;;;;2.25;0.52;;;8.50;99.90;;;;;;7299069;32;20118;-61
2023/01/14 14:47:32;;;;;;;2.55;0.57;;;8.50;99.90;;;;;;7285217;32;20469;-62
2023/01/14 14:51:44;;;;;;;1.17;0.60;;;8.50;99.90;;;;;;7298565;32;20095;-62
2023/01/14 14:55:51;;;;;;;3.70;0.88;;;8.60;99.90;;;;;;7289929;32;20107;-61
2023/01/14 15:00:16;;;;;;;0.95;0.40;;;8.60;99.90;;;;;;7283122;32;20258;-62
2023/01/14 15:04:23;;;;;;;1.05;0.50;;;8.60;99.90;;;;;;7299799;32;20122;-61
2023/01/14 15:08:28;;;;;;;1.58;0.43;;;8.70;99.90;;;;;;7273366;32;20131;-56
2023/01/14 15:12:32;;;;;;;1.50;0.80;;;8.80;99.90;;;;;;7297214;32;20103;-57
2023/01/14 15:16:34;;;;;;;4.57;0.70;;;8.90;99.90;;;;;;7290507;32;20228;-60
2023/01/14 15:20:38;;;;;;;1.60;0.65;;;8.80;99.90;;;;;;7292636;32;20101;-60
2023/01/14 15:24:40;;;;;;;1.02;0.57;;;8.90;99.90;;;;;;7298154;32;20299;-60
2023/01/14 15:28:44;;;;;;;0.70;0.40;;;8.80;99.90;;;;;;7298108;32;22961;-60
2023/01/14 15:32:46;;;;;;;1.02;0.32;;;8.90;99.90;;;;;;7299826;32;20099;-60
2023/01/14 15:36:57;;;;;;;1.15;0.40;;;8.80;99.90;;;;;;7300090;32;20245;-59
2023/01/14 15:41:05;;;;;;;1.30;0.40;;;8.90;99.90;;;;;;7300807;32;20099;-61
2023/01/14 15:45:18;;;;;;;3.28;0.93;;;9.00;99.90;;;;;;7305025;32;20438;-60
2023/01/14 15:49:21;;;;;;;2.42;0.52;;;9.00;99.90;;;;;;7304320;32;20151;-60
2023/01/14 15:53:31;;;;;;;3.03;0.80;;;9.10;99.90;;;;;;7300189;32;20286;-61
2023/01/14 15:57:40;;;;;;;0.73;0.60;;;9.10;99.90;;;;;;7296820;32;20154;-60
2023/01/14 16:01:53;;;;;;;1.48;0.50;;;9.30;99.90;;;;;;7297785;32;20130;-60
2023/01/14 16:05:55;;;;;;;2.10;0.60;;;9.30;99.90;;;;;;7298614;32;20099;-59
2023/01/14 16:10:03;;;;;;;1.23;0.60;;;9.30;99.90;;;;;;7294316;32;20422;-59
2023/01/14 16:14:11;;;;;;;3.37;0.68;;;9.30;99.90;;;;;;7300945;32;20340;-59
2023/01/14 16:18:18;;;;;;;4.25;0.52;;;9.30;99.90;;;;;;7298799;32;20096;-59
2023/01/14 16:22:20;;;;;;;1.00;0.47;;;9.40;99.90;;;;;;7300521;32;20100;-59
2023/01/14 16:26:22;;;;;;;1.08;0.50;;;9.50;99.90;;;;;;7303210;32;20240;-60
2023/01/14 16:30:24;;;;;;;1.65;0.77;;;9.60;99.90;;;;;;7298628;32;20219;-60
2023/01/14 16:34:37;;;;;;;0.93;0.40;;;9.80;99.90;;;;;;7296144;32;21021;-60
2023/01/14 16:38:39;;;;;;;0.52;0.30;;;10.00;99.90;;;;;;7297906;32;20128;-60
2023/01/14 16:42:42;;;;;;;3.97;0.32;;;10.00;99.90;;;;;;7301234;32;20108;-60
2023/01/14 16:46:43;;;;;;;2.33;0.30;;;10.20;99.90;;;;;;7295129;32;20199;-60
2023/01/14 16:50:45;;;;;;;0.98;0.30;;;10.30;99.90;;;;;;7293040;32;20187;-58
2023/01/14 16:54:47;;;;;;;0.62;0.50;;;10.30;99.90;;;;;;7297251;32;20095;-59
2023/01/14 16:58:53;;;;;;;0.77;0.20;;;10.40;99.90;;;;;;7293243;32;20192;-58
2023/01/14 17:02:54;;;;;;;0.30;0.20;;;10.50;99.90;;;;;;7295497;32;20377;-59
2023/01/14 17:06:56;;;;;;;0.20;0.10;;;10.50;99.90;;;;;;7297452;32;20493;-59
2023/01/14 17:10:58;;;;;;;1.75;0.20;;;10.50;99.90;;;;;;7295481;32;20400;-59
2023/01/14 17:14:59;;;;;;;0.57;0.30;;;10.60;99.90;;;;;;7300301;32;20465;-60
2023/01/14 17:19:01;;;;;;;2.97;1.50;;;10.60;99.90;;;;;;7297004;32;20396;-61
2023/01/14 17:23:05;;;;;;;0.95;0.30;;;10.70;99.90;;;;;;7298603;32;20833;-59
2023/01/14 17:27:07;;;;;;;0.90;0.20;;;10.70;99.90;;;;;;7299516;32;20187;-59
2023/01/14 17:31:11;;;;;;;0.93;0.30;;;10.70;99.90;;;;;;7296823;32;20560;-59
2023/01/14 17:35:14;;;;;;;0.40;0.20;;;10.70;99.90;;;;;;7298562;32;20228;-59
2023/01/14 17:39:15;;;;;;;0.30;0.13;;;10.90;99.90;;;;;;7294978;32;20138;-59
2023/01/14 17:43:17;;;;;;;0.80;0.20;;;10.90;99.90;;;;;;7294978;32;20241;-59
2023/01/14 17:47:21;;;;;;;0.22;0.13;;;10.90;99.90;;;;;;7290100;32;20626;-59
2023/01/14 17:51:23;;;;;;;0.70;0.30;;;11.00;99.90;;;;;;7297339;32;20198;-60
2023/01/14 17:55:25;;;;;;;0.55;0.30;;;11.10;99.90;;;;;;7297094;32;20126;-60
2023/01/14 17:59:27;;;;;;;0.57;0.37;;;11.00;99.90;;;;;;7296737;32;20166;-60
2023/01/14 18:03:28;;;;;;;0.90;0.47;;;11.10;99.90;;;;;;7294490;32;20183;-59
2023/01/14 18:07:30;;;;;;;0.85;0.30;;;11.10;99.90;;;;;;7295826;32;20209;-60
2023/01/14 18:11:32;;;;;;;0.70;0.30;;;11.10;99.90;;;;;;7296957;32;20130;-60
2023/01/14 18:15:33;;;;;;;0.50;0.20;;;11.20;99.90;;;;;;7296329;32;20199;-60
2023/01/14 18:19:35;;;;;;;0.73;0.43;;;11.20;99.90;;;;;;7292432;32;20187;-62
2023/01/14 18:23:39;;;;;;;0.68;0.20;;;11.20;99.90;;;;;;7284383;32;20112;-61
2023/01/14 18:27:41;;;;;;;1.08;0.30;;;11.20;99.90;;;;;;7293360;32;20103;-60
2023/01/14 18:31:43;;;;;;;0.88;0.32;;;11.20;99.90;;;;;;7288346;32;20522;-59
2023/01/14 18:35:45;;;;;;;1.10;0.50;;;11.30;99.90;;;;;;7296316;32;20227;-60
2023/01/14 18:39:48;;;;;;;0.73;0.30;;;11.30;99.90;;;;;;7296071;32;20100;-59
2023/01/14 18:43:58;;;;;;;2.08;0.80;;;11.40;99.90;;;;;;7294863;32;20112;-59
2023/01/14 18:48:00;;;;;;;1.77;0.90;;;11.40;99.90;;;;;;7294604;32;20568;-60
2023/01/14 18:52:02;;;;;;;2.05;0.95;;;11.50;99.90;;;;;;7297954;32;20100;-60
2023/01/14 18:56:16;;;;;;;1.02;0.55;;;11.50;99.90;;;;;;7294137;32;20544;-59
2023/01/14 19:00:18;;;;;;;2.67;0.60;;;11.50;99.90;;;;;;7295953;32;20156;-59
2023/01/14 19:04:20;;;;;;;0.57;0.20;;;11.50;99.90;;;;;;7294368;32;20115;-60
2023/01/14 19:08:22;;;;;;;1.08;0.30;;;11.60;99.90;;;;;;7293565;32;20105;-59
2023/01/14 19:12:23;;;;;;;1.45;0.47;;;11.60;99.90;;;;;;7301890;32;20314;-59
2023/01/14 19:16:26;;;;;;;0.40;0.28;;;11.50;99.90;;;;;;7290617;32;20143;-59
2023/01/14 19:20:28;;;;;;;2.25;0.40;;;11.50;99.90;;;;;;7286961;32;20269;-59
2023/01/14 19:24:30;;;;;;;0.30;0.17;;;11.70;99.90;;;;;;7289174;32;20116;-58
2023/01/14 19:28:31;;;;;;;0.90;0.20;;;11.80;99.90;;;;;;7290770;32;20132;-60
2023/01/14 19:32:33;;;;;;;0.47;0.20;;;11.80;99.90;;;;;;7298934;32;20252;-60
2023/01/14 19:36:35;;;;;;;0.28;0.17;;;11.60;99.90;;;;;;7295756;32;20104;-60
2023/01/14 19:40:37;;;;;;;0.50;0.20;;;11.40;99.90;;;;;;7295984;32;20824;-60
2023/01/14 19:44:39;;;;;;;1.73;0.40;;;11.30;99.90;;;;;;7288456;32;20560;-60
2023/01/14 19:48:41;;;;;;;0.70;0.25;;;11.20;99.90;;;;;;7293586;32;20229;-60
2023/01/14 19:52:43;;;;;;;0.45;0.20;;;11.10;99.90;;;;;;7296223;32;20219;-60
2023/01/14 19:56:45;;;;;;;0.52;0.25;;;11.00;99.90;;;;;;7295788;32;20249;-62
2023/01/14 20:00:47;;;;;;;1.65;0.20;;;11.00;99.90;;;;;;7289366;32;20559;-61
2023/01/14 20:04:48;;;;;;;0.50;0.30;;;10.90;99.90;;;;;;7296519;32;20141;-61
2023/01/14 20:08:51;;;;;;;0.57;0.40;;;10.90;99.90;;;;;;7292461;32;20116;-61
2023/01/14 20:12:52;;;;;;;1.10;0.50;;;10.80;99.90;;;;;;7295615;32;20126;-62
2023/01/14 20:16:54;;;;;;;2.37;0.60;;;10.80;99.90;;;;;;7291334;32;20697;-61
2023/01/14 20:20:58;;;;;;;0.73;0.40;;;10.80;99.90;;;;;;7292612;32;20186;-61
2023/01/14 20:25:00;;;;;;;1.00;0.40;;;10.80;99.90;;;;;;7295494;32;20270;-60
2023/01/14 20:29:02;;;;;;;2.67;0.50;;;10.70;99.90;;;;;;7292144;32;20112;-63
2023/01/14 20:33:04;;;;;;;0.90;0.35;;;10.80;99.90;;;;;;7295752;32;21474;-61
2023/01/14 20:37:06;;;;;;;0.75;0.30;;;10.70;99.90;;;;;;7296259;32;20202;-64
2023/01/14 20:41:09;;;;;;;1.25;0.30;;;10.60;99.90;;;;;;7299268;32;20112;-60
2023/01/14 20:45:10;;;;;;;1.58;0.55;;;10.50;99.90;;;;;;7301467;32;20127;-61
2023/01/14 20:49:12;;;;;;;0.85;0.40;;;10.50;99.90;;;;;;7298266;32;20131;-62
2023/01/14 20:53:16;;;;;;;1.12;0.60;;;10.40;99.90;;;;;;7300391;32;20245;-61
2023/01/14 20:57:18;;;;;;;1.30;0.40;;;10.30;99.90;;;;;;7298524;32;20140;-61
2023/01/14 21:01:21;;;;;;;0.80;0.50;;;10.30;99.90;;;;;;7299144;32;20107;-61
2023/01/14 21:05:24;;;;;;;1.17;0.52;;;10.30;99.90;;;;;;7298758;32;20542;-61
2023/01/14 21:09:26;;;;;;;4.05;1.00;;;10.30;99.90;;;;;;7302994;32;20223;-62
2023/01/14 21:26:52;;;;;;;3.60;1.35;;;10.20;99.90;;;;;;7300161;32;20104;-63
2023/01/14 21:30:53;;;;;;;3.22;1.10;;;10.10;99.90;;;;;;7299966;32;20104;-62
2023/01/14 21:34:59;;;;;;;5.07;1.50;;;10.10;99.90;;;;;;7296124;32;20496;-62
2023/01/14 21:39:01;;;;;;;3.15;1.73;;;10.10;99.90;;;;;;7285362;32;20153;-64
2023/01/14 21:47:24;;;;;;;4.95;1.35;;;10.00;99.90;;;;;;7297492;32;20606;-63
2023/01/14 21:51:25;;;;;;;6.47;1.33;;;9.90;99.90;;;;;;7298846;32;20113;-63
2023/01/14 21:55:29;;;;;;;4.30;1.48;;;9.90;99.90;;;;;;7298757;32;20142;-62
2023/01/14 21:59:31;;;;;;;2.40;1.30;;;9.90;99.90;;;;;;7303534;32;20115;-62
2023/01/14 22:03:33;;;;;;;2.72;1.20;;;9.80;99.90;;;;;;7299906;32;20145;-62
2023/01/14 22:07:35;;;;;;;2.35;1.00;;;9.80;99.90;;;;;;7291386;32;20303;-63
2023/01/14 22:11:37;;;;;;;3.78;1.23;;;9.80;99.90;;;;;;7293270;32;20131;-63
2023/01/14 22:15:38;;;;;;;2.60;1.30;;;9.80;99.90;;;;;;7292243;32;20137;-62
2023/01/14 22:19:41;;;;;;;4.72;1.10;;;9.70;99.90;;;;;;7297722;32;20116;-62
2023/01/14 22:23:43;;;;;;;2.75;1.02;;;9.70;99.90;;;;;;7299046;32;20146;-62